Terminal Aerodrome Forecast
Issued by NWS

Home | Current Version | Previous Version | Text Only | Print | Product List | Glossary On
Versions: 1 2 3 4 5 6 7 8 9 10 11 12 13 14 15 16
000
FTUS45 KBYZ 140057 AAA
TAFLVM
TAF AMD
KLVM 140057Z 1401/1424 27009KT 6SM -SN BR SCT015 OVC035
      TEMPO 1401/1403 27009KT 4SM -SN BR BKN025
     FM140300 27013KT P6SM VCSH BKN035
     FM140800 26016G25KT P6SM VCSH SCT020 BKN035
     FM141800 26016G25KT P6SM SCT060=

USA.gov is the U.S. government's official web portal to all federal, state and local government web resources and services.